Time;durP1;ratioP1;P1;durP2;ratioP2;P2;SDS_P1;SDS_P2;PMS_P1;PMS_P2;Temp;Humidity;BMP_temperature;BMP_pressure;BME280_temperature;BME280_humidity;BME280_pressure;Samples;Min_cycle;Max_cycle;Signal;HPM_P1;HPM_P2
2022/07/10 00:00:31;;;;;;;5.60;5.18;;;;;;;29.61;69.94;100568.63;4953640;28;65743;-30
2022/07/10 00:03:02;;;;;;;;;;;;;;;29.26;71.23;100566.38;4957000;28;69502;-30
2022/07/10 00:05:36;;;;;;;5.07;4.78;;;;;;;29.56;70.40;100580.13;4957178;28;66061;-30
2022/07/10 00:08:07;;;;;;;5.03;4.72;;;;;;;29.60;70.03;100577.78;4954956;28;70197;-31
2022/07/10 00:10:38;;;;;;;5.15;4.85;;;;;;;29.57;70.48;100568.25;4944686;28;66301;-30
2022/07/10 00:13:09;;;;;;;5.90;5.43;;;;;;;29.60;70.44;100577.78;4948584;28;70148;-31
2022/07/10 00:15:40;;;;;;;7.47;4.82;;;;;;;29.59;70.19;100582.38;5016855;28;66537;-30
2022/07/10 00:18:11;;;;;;;9.18;4.93;;;;;;;29.62;70.30;100586.50;4953237;28;70093;-30
2022/07/10 00:20:42;;;;;;;5.22;4.82;;;;;;;29.62;70.26;100590.03;4952317;28;66989;-30
2022/07/10 00:23:13;;;;;;;5.10;4.60;;;;;;;29.62;70.39;100586.50;4953654;28;70121;-30
2022/07/10 00:25:44;;;;;;;4.90;4.50;;;;;;;29.63;70.55;100582.78;5018651;28;64996;-29
2022/07/10 00:28:15;;;;;;;4.77;4.20;;;;;;;29.57;70.29;100589.88;4953213;28;69774;-30
2022/07/10 00:30:46;;;;;;;4.50;4.20;;;;;;;29.65;70.32;100596.91;4954993;28;67437;-30
2022/07/10 00:33:18;;;;;;;4.13;3.83;;;;;;;29.56;70.85;100577.41;4955849;28;69929;-30
2022/07/10 00:35:48;;;;;;;4.03;3.75;;;;;;;29.65;70.27;100588.00;5016510;28;65385;-30
2022/07/10 00:38:20;;;;;;;3.97;3.67;;;;;;;29.68;70.58;100603.75;4955758;28;70306;-29
2022/07/10 00:40:51;;;;;;;4.20;3.90;;;;;;;29.65;70.65;100602.31;4954513;28;65366;-30
2022/07/10 00:43:22;;;;;;;3.70;3.50;;;;;;;29.67;70.38;100593.97;4953673;28;70214;-31
2022/07/10 00:45:53;;;;;;;3.88;3.67;;;;;;;29.69;70.55;100595.41;4954176;28;66431;-35
2022/07/10 00:48:24;;;;;;;3.45;3.25;;;;;;;29.67;70.63;100592.13;4955004;28;70381;-30
2022/07/10 00:50:55;;;;;;;3.60;3.30;;;;;;;29.71;70.12;100596.03;4951421;28;66793;-30
2022/07/10 00:53:26;;;;;;;3.90;3.60;;;;;;;29.71;70.54;100606.84;4953905;28;69900;-31
2022/07/10 00:55:57;;;;;;;3.85;3.55;;;;;;;29.72;70.75;100603.09;5016940;28;65815;-30
2022/07/10 00:58:28;;;;;;;3.60;3.40;;;;;;;29.72;70.37;100608.50;4954817;28;69698;-30
2022/07/10 01:00:59;;;;;;;3.22;3.03;;;;;;;29.74;70.15;100605.59;4952180;28;66250;-31
2022/07/10 01:03:31;;;;;;;3.72;3.45;;;;;;;29.70;70.20;100599.81;4951544;28;69401;-30
2022/07/10 01:06:02;;;;;;;3.85;3.50;;;;;;;29.74;70.85;100601.00;4946675;28;65852;-30
2022/07/10 01:08:33;;;;;;;;;;;;;;;29.44;71.50;100608.03;4952720;28;70544;-29
2022/07/10 01:11:21;;;;;;;3.60;3.30;;;;;;;29.70;70.36;100613.31;4949085;28;66934;-30
2022/07/10 01:13:52;;;;;;;4.60;3.95;;;;;;;29.77;70.80;100611.38;5003892;28;69921;-31
2022/07/10 01:16:30;;;;;;;4.90;4.47;;;;;;;29.80;70.18;100619.03;4954757;28;66492;-30
2022/07/10 01:19:06;;;;;;;6.45;5.68;;;;;;;29.77;70.75;100616.78;4956057;28;70210;-31
2022/07/10 01:21:37;;;;;;;6.75;6.18;;;;;;;29.80;70.89;100616.34;4959085;28;65704;-31
2022/07/10 01:24:10;;;;;;;7.82;7.18;;;;;;;29.45;70.95;100561.03;5018664;28;69844;-30
2022/07/10 01:26:42;;;;;;;8.20;7.55;;;;;;;29.76;70.32;100604.31;4967582;28;65668;-30
2022/07/10 01:29:15;;;;;;;7.88;7.18;;;;;;;29.80;70.28;100616.34;4953906;28;70505;-31
2022/07/10 01:31:46;;;;;;;8.30;7.60;;;;;;;29.76;70.58;100604.31;4952387;28;67467;-30
2022/07/10 01:34:23;;;;;;;8.30;7.53;;;;;;;29.82;70.93;100608.84;4955984;28;70144;-31
2022/07/10 01:36:54;;;;;;;7.40;6.80;;;;;;;29.84;70.87;100612.16;4955309;28;65973;-31
2022/07/10 01:39:28;;;;;;;6.57;5.95;;;;;;;29.86;70.60;100613.81;4958264;28;69578;-31
2022/07/10 01:42:03;;;;;;;7.75;6.38;;;;;;;29.77;70.39;100600.56;4953302;28;65431;-31
2022/07/10 01:44:34;;;;;;;6.60;6.00;;;;;;;29.88;70.67;100614.44;4956028;28;70211;-32
2022/07/10 01:47:07;;;;;;;5.75;5.25;;;;;;;29.88;70.20;100617.13;5021266;28;65619;-31
2022/07/10 01:49:41;;;;;;;7.05;5.00;;;;;;;29.93;70.13;100625.41;4954604;28;70522;-30
2022/07/10 01:52:12;;;;;;;6.53;5.38;;;;;;;29.73;70.57;100603.94;4956890;28;67160;-32
2022/07/10 01:54:42;;;;;;;4.85;4.45;;;;;;;29.94;70.25;100640.59;4956616;28;69451;-31
2022/07/10 01:57:14;;;;;;;4.60;4.13;;;;;;;29.93;70.47;100626.25;4948039;28;66769;-32
2022/07/10 01:59:45;;;;;;;7.73;4.20;;;;;;;29.92;70.43;100631.84;4957004;28;70107;-31
2022/07/10 02:02:16;;;;;;;4.97;4.47;;;;;;;29.95;70.58;100626.00;5034085;28;65418;-30
2022/07/10 02:04:48;;;;;;;4.05;3.75;;;;;;;29.93;70.28;100626.25;5021521;28;70706;-30
2022/07/10 02:07:22;;;;;;;7.15;4.07;;;;;;;30.00;69.83;100631.59;4957749;28;65939;-30
2022/07/10 02:09:53;;;;;;;4.20;3.90;;;;;;;30.01;70.08;100633.25;5019815;28;70117;-31
2022/07/10 02:12:24;;;;;;;4.50;3.53;;;;;;;30.01;70.39;100633.25;4956970;28;65160;-31
2022/07/10 02:14:59;;;;;;;4.85;3.75;;;;;;;29.93;70.50;100620.00;5020564;28;69481;-30
2022/07/10 02:17:30;;;;;;;3.67;3.38;;;;;;;30.01;69.80;100627.84;4955819;28;65227;-31
2022/07/10 02:20:01;;;;;;;3.28;3.03;;;;;;;30.04;69.82;100633.63;4954668;28;70518;-30
2022/07/10 02:22:32;;;;;;;3.47;3.25;;;;;;;30.05;70.44;100634.47;4957085;28;67380;-31
2022/07/10 02:25:03;;;;;;;3.58;3.10;;;;;;;30.08;70.16;100634.03;4952375;28;69696;-31
2022/07/10 02:27:34;;;;;;;4.67;2.60;;;;;;;30.06;69.99;100628.84;4956419;28;66068;-30
2022/07/10 02:30:06;;;;;;;2.78;2.45;;;;;;;30.10;70.28;100623.81;5020377;28;70020;-31
2022/07/10 02:32:37;;;;;;;3.63;2.95;;;;;;;30.09;70.30;100630.28;4955720;28;66400;-30
2022/07/10 02:35:08;;;;;;;3.47;3.10;;;;;;;30.12;70.23;100627.13;4958056;28;70608;-33
2022/07/10 02:37:39;;;;;;;4.00;2.60;;;;;;;30.15;69.88;100629.38;4953275;28;65683;-31
2022/07/10 02:40:10;;;;;;;3.15;2.90;;;;;;;30.19;69.64;100635.19;5003420;28;69739;-30
2022/07/10 02:42:42;;;;;;;3.22;2.85;;;;;;;30.18;70.00;100623.53;5024135;28;66061;-30
2022/07/10 02:45:13;;;;;;;2.75;2.55;;;;;;;30.22;69.72;100623.94;4953075;28;69446;-30
2022/07/10 02:47:44;;;;;;;2.50;2.30;;;;;;;30.23;69.67;100637.25;5022677;28;66692;-30
2022/07/10 02:50:15;;;;;;;5.30;2.50;;;;;;;30.26;69.43;100615.16;4956389;28;69971;-30
2022/07/10 02:52:45;;;;;;;2.90;2.63;;;;;;;30.21;69.27;100601.44;5017872;28;67593;-32
2022/07/10 02:55:17;;;;;;;3.17;2.60;;;;;;;30.30;69.22;100615.53;4955100;28;70886;-30
2022/07/10 02:57:48;;;;;;;3.25;2.30;;;;;;;30.31;69.19;100622.59;5018002;28;65488;-31
2022/07/10 03:00:22;;;;;;;2.40;1.93;;;;;;;30.32;69.41;100624.28;5017486;28;69703;-30
2022/07/10 03:02:55;;;;;;;3.00;2.80;;;;;;;30.33;69.82;100616.97;4955526;28;65979;-31
2022/07/10 03:05:25;;;;;;;;;;;;;;;30.03;70.03;100620.31;4951669;28;69666;-31
2022/07/10 03:11:22;;;;;;;2.90;2.35;;;;;;;30.38;69.63;100606.31;4947185;28;71232;-32
2022/07/10 03:13:54;;;;;;;2.60;2.10;;;;;;;30.35;68.93;100593.25;5031738;28;66449;-29
2022/07/10 03:16:31;;;;;;;2.35;2.00;;;;;;;30.42;69.37;100605.66;4955437;28;70585;-32
2022/07/10 03:19:29;;;;;;;2.47;2.28;;;;;;;30.38;69.09;100590.91;4953902;28;68544;-33
2022/07/10 03:22:00;;;;;;;3.70;2.03;;;;;;;30.48;69.26;100595.81;4956347;28;69680;-31
2022/07/10 03:24:31;;;;;;;2.42;2.20;;;;;;;30.49;68.85;100592.03;4957090;28;68011;-32
2022/07/10 03:27:02;;;;;;;2.40;2.10;;;;;;;30.54;69.06;100594.91;4953546;28;70258;-30
2022/07/10 03:29:33;;;;;;;2.35;1.80;;;;;;;30.55;68.71;100590.31;4955403;28;65280;-30
2022/07/10 03:32:04;;;;;;;2.45;1.85;;;;;;;30.58;68.79;100596.09;4952630;28;69938;-31
2022/07/10 03:34:36;;;;;;;2.50;1.80;;;;;;;30.60;68.35;100585.06;4954844;28;66295;-32
2022/07/10 03:37:08;;;;;;;2.10;1.70;;;;;;;30.52;68.78;100566.41;5012233;28;70221;-30
2022/07/10 03:39:38;;;;;;;1.92;1.73;;;;;;;30.63;68.48;100593.53;4999492;28;64804;-32
2022/07/10 03:42:10;;;;;;;1.85;1.70;;;;;;;30.68;68.11;100584.75;5019886;28;70654;-31
2022/07/10 03:44:41;;;;;;;2.58;1.48;;;;;;;30.67;68.47;100588.50;4956949;28;66034;-31
2022/07/10 03:47:12;;;;;;;1.70;1.50;;;;;;;30.72;68.56;100581.34;5021080;28;70412;-31
2022/07/10 03:49:42;;;;;;;2.53;1.48;;;;;;;30.72;68.05;100578.66;4956255;28;64999;-29
2022/07/10 03:52:14;;;;;;;2.47;1.95;;;;;;;30.71;68.63;100571.59;4955055;28;69974;-31
2022/07/10 03:54:45;;;;;;;3.40;2.00;;;;;;;30.76;68.22;100567.34;4946873;28;65609;-30
2022/07/10 04:00:05;;;;;;;3.40;1.58;;;;;;;30.80;67.79;100560.47;4951125;28;66216;-29
2022/07/10 04:02:39;;;;;;;2.80;1.73;;;;;;;30.80;67.67;100555.88;4947846;28;70158;-30
2022/07/10 04:05:11;;;;;;;1.50;1.33;;;;;;;30.79;68.26;100554.22;5012373;28;65319;-32
2022/07/10 04:07:42;;;;;;;3.15;1.50;;;;;;;30.45;67.67;100487.97;4952540;28;69365;-31
2022/07/10 04:10:13;;;;;;;6.30;1.55;;;;;;;30.85;67.80;100538.97;4956954;28;64950;-32
2022/07/10 04:12:45;;;;;;;5.93;1.53;;;;;;;30.91;68.02;100547.00;4955859;28;69669;-31
2022/07/10 04:15:16;;;;;;;1.63;1.52;;;;;;;30.94;67.54;100543.00;4955004;28;66686;-31
2022/07/10 04:17:48;;;;;;;1.90;1.70;;;;;;;30.99;67.79;100536.91;5003182;28;70233;-35
2022/07/10 04:20:21;;;;;;;2.00;1.67;;;;;;;31.00;67.57;100519.59;4953682;28;66050;-31
2022/07/10 04:22:52;;;;;;;1.63;1.42;;;;;;;31.03;67.67;100516.41;4954573;28;70273;-33
2022/07/10 04:25:23;;;;;;;1.67;1.30;;;;;;;31.03;67.32;100511.81;5016996;28;67224;-33
2022/07/10 04:27:54;;;;;;;1.75;1.52;;;;;;;31.05;67.31;100498.88;4953184;28;70084;-33
2022/07/10 04:30:25;;;;;;;1.57;1.47;;;;;;;31.08;67.38;100495.72;4954012;28;66057;-33
2022/07/10 04:32:57;;;;;;;1.80;1.23;;;;;;;31.06;66.96;100486.97;5021090;28;69773;-31
2022/07/10 04:35:28;;;;;;;1.63;1.52;;;;;;;31.13;67.22;100489.59;4953130;28;64859;-31
2022/07/10 04:37:59;;;;;;;1.65;1.40;;;;;;;31.16;66.71;100489.97;5013429;28;69584;-31
2022/07/10 04:40:30;;;;;;;1.55;1.45;;;;;;;31.16;67.16;100479.13;4951056;28;64903;-31
2022/07/10 04:43:01;;;;;;;2.05;1.38;;;;;;;31.20;66.81;100475.94;4951534;28;69883;-30
2022/07/10 04:45:31;;;;;;;3.60;1.58;;;;;;;31.21;66.70;100466.78;4955336;28;66810;-31
2022/07/10 04:48:04;;;;;;;1.25;1.15;;;;;;;31.23;66.66;100467.34;4954169;28;69781;-30
2022/07/10 04:50:35;;;;;;;1.00;0.90;;;;;;;31.27;66.61;100463.13;4955716;28;66563;-30
2022/07/10 04:53:05;;;;;;;2.22;1.00;;;;;;;31.25;66.86;100460.66;5028090;28;69884;-31
2022/07/10 04:55:37;;;;;;;1.48;0.98;;;;;;;31.25;66.35;100455.22;5019253;28;65234;-31
2022/07/10 04:58:08;;;;;;;1.48;1.05;;;;;;;31.26;66.85;100456.03;5020887;28;70561;-29
2022/07/10 05:00:39;;;;;;;1.92;1.10;;;;;;;31.27;66.28;100449.59;5009709;28;66175;-30
2022/07/10 05:03:10;;;;;;;1.65;1.13;;;;;;;31.29;66.41;100444.75;4952216;28;70118;-30
2022/07/10 05:05:41;;;;;;;1.30;1.07;;;;;;;31.31;66.20;100448.03;5016556;28;65361;-32
2022/07/10 05:08:12;;;;;;;1.92;1.10;;;;;;;31.32;65.92;100452.41;4952633;28;71438;-31
2022/07/10 05:10:43;;;;;;;1.55;1.00;;;;;;;31.32;65.87;100436.97;4955027;28;66051;-30
2022/07/10 05:13:15;;;;;;;1.27;0.93;;;;;;;31.36;66.27;100431.94;5022906;28;69477;-31
2022/07/10 05:15:49;;;;;;;1.10;0.98;;;;;;;31.41;66.30;100426.66;4957501;28;65238;-32
2022/07/10 05:18:20;;;;;;;1.38;1.00;;;;;;;31.28;66.25;100399.72;4957093;28;70595;-33
2022/07/10 05:21:01;;;;;;;1.30;0.95;;;;;;;31.41;66.10;100404.16;4952853;28;65860;-32
2022/07/10 05:23:33;;;;;;;1.30;1.00;;;;;;;31.44;65.98;100404.50;4949998;28;69898;-30
2022/07/10 05:26:10;;;;;;;4.35;1.13;;;;;;;31.49;66.05;100396.47;4958638;28;65815;-34
2022/07/10 05:28:42;;;;;;;2.80;1.15;;;;;;;31.46;65.62;100383.41;4958806;28;70691;-32
2022/07/10 05:31:14;;;;;;;3.60;1.02;;;;;;;31.47;65.91;100376.09;4957263;28;66795;-31
2022/07/10 05:33:45;;;;;;;1.80;0.95;;;;;;;31.57;65.75;100382.56;4957689;28;69905;-30
2022/07/10 05:36:16;;;;;;;1.08;0.80;;;;;;;31.60;65.77;100376.69;4956284;28;65685;-30
2022/07/10 05:38:47;;;;;;;1.38;0.85;;;;;;;31.65;65.42;100385.97;4956561;28;69789;-31
2022/07/10 05:41:18;;;;;;;1.30;1.13;;;;;;;31.65;65.59;100383.25;5024469;28;65131;-31
2022/07/10 05:43:49;;;;;;;1.17;0.98;;;;;;;31.67;65.01;100390.09;4957191;28;70017;-32
2022/07/10 05:46:20;;;;;;;1.20;0.80;;;;;;;31.68;65.27;100383.63;4953302;28;66288;-33
2022/07/10 05:48:51;;;;;;;1.30;0.90;;;;;;;31.74;65.21;100379.97;4955833;28;69837;-29
2022/07/10 05:51:22;;;;;;;1.08;0.98;;;;;;;31.75;65.18;100388.91;4955613;28;67743;-30
2022/07/10 05:54:07;;;;;;;1.55;1.00;;;;;;;31.79;64.95;100379.25;4953155;28;69495;-32
2022/07/10 05:56:37;;;;;;;1.13;0.90;;;;;;;31.81;64.86;100382.53;4958104;28;65711;-32
2022/07/10 05:59:08;;;;;;;1.80;1.13;;;;;;;31.81;64.74;100360.84;4956878;28;70708;-33
2022/07/10 06:01:39;;;;;;;5.00;1.00;;;;;;;31.85;64.73;100364.72;4956630;28;66265;-32
2022/07/10 06:04:10;;;;;;;1.33;0.93;;;;;;;31.84;64.49;100363.06;4951098;28;69625;-31
2022/07/10 06:06:41;;;;;;;1.20;0.83;;;;;;;31.89;64.67;100368.59;5023561;28;64628;-30
2022/07/10 06:09:13;;;;;;;1.10;0.80;;;;;;;31.90;64.80;100359.41;4956718;28;68957;-30
2022/07/10 06:11:45;;;;;;;1.52;0.80;;;;;;;31.96;64.80;100361.19;4956351;28;66551;-32
2022/07/10 06:14:16;;;;;;;1.30;0.80;;;;;;;31.96;64.21;100353.06;4951153;28;70161;-32
2022/07/10 06:16:47;;;;;;;0.98;0.70;;;;;;;31.98;64.19;100345.50;4950660;28;66186;-33
2022/07/10 06:19:21;;;;;;;1.58;0.75;;;;;;;31.98;64.34;100345.50;4955116;28;70503;-32
2022/07/10 06:22:30;;;;;;;1.08;0.90;;;;;;;32.04;64.42;100344.53;4956832;28;64823;-31
2022/07/10 06:24:42;;;;;;;0.93;0.70;;;;;;;32.06;64.35;100336.16;4954853;28;70379;-31
2022/07/10 06:27:13;;;;;;;1.40;0.90;;;;;;;32.09;63.95;100332.94;4956277;28;65793;-31
2022/07/10 06:29:44;;;;;;;1.27;0.80;;;;;;;31.96;64.32;100306.13;4957095;28;69574;-32
2022/07/10 06:32:16;;;;;;;1.23;0.70;;;;;;;32.11;64.07;100308.31;4954382;28;66623;-30
2022/07/10 06:34:47;;;;;;;1.15;0.70;;;;;;;32.16;64.26;100324.69;5024096;28;69862;-32
2022/07/10 06:37:18;;;;;;;1.20;0.80;;;;;;;32.03;63.90;100299.47;4950857;28;65583;-31
2022/07/10 06:39:49;;;;;;;1.08;0.73;;;;;;;32.19;63.74;100318.75;4950749;28;69789;-31
2022/07/10 06:42:20;;;;;;;1.65;0.90;;;;;;;32.18;63.80;100311.66;4955987;28;65841;-32
2022/07/10 06:44:52;;;;;;;;;;;;;;;31.93;64.31;100320.13;5004030;28;70577;-33
2022/07/10 06:50:12;;;;;;;1.48;1.00;;;;;;;32.23;64.00;100314.47;4954562;28;70274;-30
2022/07/10 06:52:43;;;;;;;1.63;0.70;;;;;;;32.25;63.85;100312.34;4955399;28;65668;-30
2022/07/10 06:55:15;;;;;;;1.67;0.83;;;;;;;32.26;63.91;100314.00;4953778;28;69966;-33
2022/07/10 06:57:46;;;;;;;1.17;0.80;;;;;;;32.23;63.79;100314.47;4953760;28;66060;-34
2022/07/10 07:00:17;;;;;;;1.45;0.88;;;;;;;32.31;64.08;100305.94;4954545;28;69809;-31
2022/07/10 07:02:48;;;;;;;1.08;0.57;;;;;;;32.25;63.94;100296.91;4955696;28;65323;-32
2022/07/10 07:05:19;;;;;;;1.52;1.02;;;;;;;32.30;63.71;100296.16;5019833;28;70049;-31
2022/07/10 07:07:50;;;;;;;1.20;0.80;;;;;;;32.29;63.55;100291.81;4956436;28;67634;-31
2022/07/10 07:10:22;;;;;;;1.63;0.80;;;;;;;32.31;63.61;100294.28;4952282;28;69896;-33
2022/07/10 07:12:53;;;;;;;2.03;0.98;;;;;;;32.32;63.78;100294.03;5016231;28;65813;-29
2022/07/10 07:15:24;;;;;;;1.50;0.75;;;;;;;32.35;63.56;100285.41;4957968;28;70121;-31
2022/07/10 07:18:08;;;;;;;2.55;0.77;;;;;;;32.09;63.57;100242.59;4991034;28;65171;-31
2022/07/10 07:23:51;;;;;;;2.45;1.00;;;;;;;32.40;63.47;100271.94;4953616;28;66062;-30
2022/07/10 07:26:22;;;;;;;2.65;1.10;;;;;;;32.45;63.57;100271.19;4956143;28;69654;-30
2022/07/10 07:28:53;;;;;;;2.47;0.90;;;;;;;32.18;63.09;100225.69;4954020;28;66438;-31
2022/07/10 07:31:48;;;;;;;1.50;1.03;;;;;;;32.43;63.44;100255.16;4957403;28;70012;-31
2022/07/10 07:41:16;;;;;;;1.95;1.02;;;;;;;32.52;62.99;100276.50;4951036;28;66249;-32
2022/07/10 07:47:57;;;;;;;2.30;1.05;;;;;;;32.44;63.10;100267.66;4992863;28;65198;-33
2022/07/10 07:50:58;;;;;;;2.10;1.08;;;;;;;32.39;62.73;100270.28;4954886;28;70198;-32
2022/07/10 07:53:29;;;;;;;1.27;0.95;;;;;;;32.38;63.22;100279.50;4955371;28;66853;-31
2022/07/10 07:56:00;;;;;;;2.08;1.00;;;;;;;32.46;63.40;100276.41;4956218;28;70366;-31
2022/07/10 07:59:12;;;;;;;1.70;1.00;;;;;;;32.33;63.67;100260.41;5010905;28;65736;-31
2022/07/10 08:01:44;;;;;;;1.83;0.98;;;;;;;32.38;63.96;100263.22;4952909;28;69349;-32
2022/07/10 08:04:20;;;;;;;2.28;1.08;;;;;;;32.39;63.98;100253.16;5012333;28;66194;-31
2022/07/10 08:06:52;;;;;;;2.20;0.90;;;;;;;32.39;64.22;100250.44;4948929;28;69479;-32
2022/07/10 08:09:23;;;;;;;2.22;1.27;;;;;;;32.37;64.27;100261.53;4954994;28;66062;-30
2022/07/10 08:11:53;;;;;;;2.92;1.35;;;;;;;32.28;64.43;100241.31;4950142;28;71773;-32
2022/07/10 08:14:25;;;;;;;1.77;1.23;;;;;;;32.26;64.65;100238.00;5020119;28;65429;-31
2022/07/10 08:16:56;;;;;;;1.88;1.20;;;;;;;32.33;64.55;100244.13;4947074;28;70604;-32
2022/07/10 08:19:48;;;;;;;1.20;1.00;;;;;;;32.32;64.78;100256.06;4952865;28;67854;-31
2022/07/10 08:22:55;;;;;;;;;;;;;;;;;;;;;
2022/07/10 08:25:32;;;;;;;2.90;1.48;;;;;;;32.33;64.79;100254.97;4955244;28;66840;-32
2022/07/10 08:28:05;;;;;;;2.88;1.38;;;;;;;32.35;64.68;100257.44;5014345;28;69260;-31
2022/07/10 08:30:37;;;;;;;3.40;1.25;;;;;;;32.30;64.75;100254.66;4953103;28;66477;-34
2022/07/10 08:33:08;;;;;;;3.00;1.42;;;;;;;32.31;64.92;100267.97;4955271;28;70679;-32
2022/07/10 08:36:20;;;;;;;1.37;1.00;;;;;;;32.07;65.41;100252.84;4952772;28;65509;-32
2022/07/10 08:39:08;;;;;;;3.63;1.30;;;;;;;32.27;65.12;100277.66;5021754;28;70003;-31
2022/07/10 08:42:12;;;;;;;2.58;2.15;;;;;;;32.18;65.22;100285.38;4953474;28;66443;-31
2022/07/10 08:44:43;;;;;;;2.25;1.75;;;;;;;32.25;65.45;100279.78;4956231;28;69386;-32
2022/07/10 08:47:15;;;;;;;2.72;1.83;;;;;;;32.21;65.53;100278.66;4953107;28;66111;-31
2022/07/10 08:49:47;;;;;;;2.45;1.75;;;;;;;32.27;65.00;100273.06;4984575;28;70460;-32
2022/07/10 08:52:42;;;;;;;4.82;1.45;;;;;;;31.96;65.43;100239.13;4956792;28;66600;-31
2022/07/10 08:55:17;;;;;;;2.85;1.35;;;;;;;32.24;65.37;100283.59;5023653;28;69249;-31
2022/07/10 08:57:50;;;;;;;3.83;1.77;;;;;;;32.23;65.18;100292.78;5011834;28;67067;-32
2022/07/10 09:00:23;;;;;;;2.05;1.52;;;;;;;32.20;65.49;100293.25;5007195;28;70306;-33
2022/07/10 09:02:55;;;;;;;2.17;1.20;;;;;;;32.13;65.43;100279.84;5022213;28;65612;-34
2022/07/10 09:05:27;;;;;;;1.30;0.95;;;;;;;32.19;65.46;100305.19;4958610;28;70460;-34
2022/07/10 09:07:58;;;;;;;1.88;1.33;;;;;;;32.17;66.00;100323.59;5014435;28;66595;-31
2022/07/10 09:10:29;;;;;;;2.90;1.40;;;;;;;32.09;65.40;100302.28;4953698;28;70057;-31
2022/07/10 09:13:02;;;;;;;4.80;1.20;;;;;;;32.15;65.49;100301.31;4988904;28;65827;-31
2022/07/10 09:15:34;;;;;;;1.65;1.20;;;;;;;32.13;65.66;100303.47;4955774;28;71153;-32
2022/07/10 09:18:07;;;;;;;2.50;1.58;;;;;;;32.10;65.50;100303.94;4948666;28;66216;-32
2022/07/10 09:20:46;;;;;;;1.75;1.17;;;;;;;32.09;65.53;100305.81;4952216;28;70257;-30
2022/07/10 09:23:22;;;;;;;1.73;1.10;;;;;;;32.08;65.33;100320.47;4950446;28;65699;-32
2022/07/10 09:25:54;;;;;;;2.30;1.50;;;;;;;32.07;65.40;100313.41;4957228;28;69886;-32
2022/07/10 09:28:25;;;;;;;1.58;1.15;;;;;;;32.02;66.10;100314.09;4956865;28;65562;-30
2022/07/10 09:30:56;;;;;;;2.95;1.33;;;;;;;32.01;65.83;100317.91;4955561;28;70472;-31
2022/07/10 09:33:30;;;;;;;1.77;1.00;;;;;;;31.86;65.85;100286.91;4953409;28;66479;-32
2022/07/10 09:36:11;;;;;;;2.13;1.17;;;;;;;31.98;65.82;100312.97;4952382;28;70292;-30
2022/07/10 09:39:03;;;;;;;1.58;1.25;;;;;;;32.01;66.07;100312.47;5007699;28;65623;-30
2022/07/10 09:41:33;;;;;;;1.60;1.50;;;;;;;31.96;66.03;100320.50;5019427;28;70228;-30
2022/07/10 09:44:09;;;;;;;1.48;1.00;;;;;;;32.00;65.95;100332.50;4957269;28;65335;-31
2022/07/10 09:46:41;;;;;;;1.70;1.20;;;;;;;31.74;65.91;100292.38;4957008;28;69611;-33
2022/07/10 09:49:13;;;;;;;1.58;1.25;;;;;;;31.91;66.10;100327.69;5020532;28;66302;-33
2022/07/10 09:51:46;;;;;;;2.88;1.70;;;;;;;31.76;66.33;100303.78;4956523;28;70102;-31
2022/07/10 09:54:18;;;;;;;1.80;1.27;;;;;;;31.92;66.26;100329.34;4954416;28;66668;-31
2022/07/10 09:56:53;;;;;;;3.25;1.23;;;;;;;31.58;66.30;100275.78;4956370;28;70810;-31
2022/07/10 09:59:26;;;;;;;1.92;1.45;;;;;;;31.91;66.29;100333.97;4955483;28;66813;-32
2022/07/10 10:02:00;;;;;;;1.35;1.00;;;;;;;31.91;66.00;100346.69;4956216;28;69796;-31
2022/07/10 10:04:35;;;;;;;3.92;1.33;;;;;;;31.92;66.31;100354.59;4955604;28;66050;-30
2022/07/10 10:07:12;;;;;;;1.95;1.55;;;;;;;31.66;66.44;100319.84;4954820;28;70250;-31
2022/07/10 10:09:53;;;;;;;2.05;1.40;;;;;;;31.79;66.35;100335.88;5015765;28;66748;-33
2022/07/10 10:12:45;;;;;;;6.57;1.60;;;;;;;31.44;67.17;100309.63;4962509;28;70533;-34
2022/07/10 10:15:19;;;;;;;2.03;1.52;;;;;;;31.82;67.25;100362.50;4956362;28;64720;-30
2022/07/10 10:17:52;;;;;;;2.75;1.63;;;;;;;31.87;67.22;100384.28;4955153;28;69798;-33
2022/07/10 10:20:37;;;;;;;3.42;1.63;;;;;;;31.88;67.23;100377.00;5021519;28;66544;-33
2022/07/10 10:23:18;;;;;;;2.92;1.70;;;;;;;31.72;66.88;100340.59;4955231;28;69271;-31
2022/07/10 10:25:55;;;;;;;2.53;1.98;;;;;;;31.91;66.68;100374.66;4955500;28;66036;-32
2022/07/10 10:28:37;;;;;;;4.38;2.03;;;;;;;31.79;66.24;100341.28;5007664;28;69638;-32
2022/07/10 10:31:24;;;;;;;3.50;2.20;;;;;;;32.01;65.94;100387.59;5019612;28;65790;-30
2022/07/10 10:33:56;;;;;;;;;;;;;;;31.74;66.42;100392.69;4957915;28;69319;-31
2022/07/10 10:36:36;;;;;;;3.58;1.60;;;;;;;32.03;65.51;100402.56;4963168;28;65815;-31
2022/07/10 10:39:21;;;;;;;3.40;2.25;;;;;;;31.74;65.43;100343.88;4967190;28;69783;-31
2022/07/10 10:41:54;;;;;;;3.00;2.13;;;;;;;32.16;65.86;100409.63;4957104;28;66357;-32
2022/07/10 10:44:29;;;;;;;3.42;2.20;;;;;;;32.16;65.59;100409.63;4956839;28;69681;-30
2022/07/10 10:47:09;;;;;;;8.40;2.00;;;;;;;32.13;65.90;100422.84;5012129;28;65584;-31
2022/07/10 10:49:56;;;;;;;5.50;2.65;;;;;;;32.08;65.41;100422.75;4951949;28;69126;-31
2022/07/10 10:52:27;;;;;;;5.70;2.42;;;;;;;32.14;65.86;100419.88;4954915;28;66766;-32
2022/07/10 10:55:07;;;;;;;3.63;2.72;;;;;;;32.15;65.64;100423.41;4952340;28;69613;-30
2022/07/10 10:57:48;;;;;;;6.95;2.78;;;;;;;32.06;66.77;100425.69;4955114;28;65821;-31
2022/07/10 11:00:37;;;;;;;4.97;3.05;;;;;;;31.53;67.41;100378.66;4954290;28;69279;-30
2022/07/10 11:03:21;;;;;;;3.65;2.63;;;;;;;31.71;67.81;100417.59;4956399;28;65614;-33
2022/07/10 11:05:54;;;;;;;5.65;3.28;;;;;;;31.76;68.36;100439.38;4982877;28;69908;-33
2022/07/10 11:08:39;;;;;;;3.80;3.50;;;;;;;31.34;68.63;100394.22;4955534;28;65672;-33
2022/07/10 11:11:32;;;;;;;3.50;3.20;;;;;;;31.57;69.01;100436.78;4953512;28;70008;-31
2022/07/10 11:14:04;;;;;;;;;;;;;;;31.29;69.83;100442.88;4954745;28;66294;-35
2022/07/10 11:16:46;;;;;;;6.70;3.47;;;;;;;31.54;69.62;100448.13;4954888;28;70927;-34
2022/07/10 11:19:28;;;;;;;4.32;3.55;;;;;;;31.47;69.52;100441.16;5014335;28;66090;-33
2022/07/10 11:22:34;;;;;;;4.47;4.05;;;;;;;31.39;69.65;100455.88;5016888;28;69328;-32
2022/07/10 11:25:17;;;;;;;5.28;3.80;;;;;;;31.44;69.48;100453.28;4952761;28;66285;-32
2022/07/10 11:27:54;;;;;;;7.90;4.70;;;;;;;31.42;69.88;100455.41;4955907;28;69840;-31
2022/07/10 11:30:28;;;;;;;4.75;4.28;;;;;;;31.36;68.82;100461.75;4955196;28;65965;-31
2022/07/10 11:33:05;;;;;;;5.07;4.03;;;;;;;31.32;69.15;100465.97;4950274;28;71615;-32
2022/07/10 11:35:41;;;;;;;5.13;4.18;;;;;;;31.28;69.28;100470.19;4951646;28;66144;-31
2022/07/10 11:38:12;;;;;;;7.35;4.63;;;;;;;31.23;69.48;100461.94;4955583;28;70796;-33
2022/07/10 11:40:43;;;;;;;9.37;4.50;;;;;;;31.24;69.93;100471.72;4951516;28;66231;-31
2022/07/10 11:43:16;;;;;;;29.30;5.85;;;;;;;31.27;70.47;100468.56;4947004;28;70459;-32
2022/07/10 11:45:48;;;;;;;22.73;5.50;;;;;;;31.30;70.90;100473.50;4956584;28;66980;-32
2022/07/10 11:48:20;;;;;;;15.73;5.17;;;;;;;31.31;70.98;100477.84;4957008;28;70357;-31
2022/07/10 11:50:52;;;;;;;11.75;5.13;;;;;;;31.32;70.93;100471.41;5035672;28;65423;-32
2022/07/10 11:53:28;;;;;;;13.90;5.13;;;;;;;31.34;70.98;100480.09;4958675;28;69811;-32
2022/07/10 11:55:58;;;;;;;15.10;4.80;;;;;;;31.38;70.57;100489.47;4954724;28;65494;-30
2022/07/10 11:58:29;;;;;;;21.48;5.90;;;;;;;31.36;70.55;100488.84;4955985;28;70423;-32
2022/07/10 12:01:05;;;;;;;7.68;4.68;;;;;;;30.75;70.36;100397.84;4956824;28;65994;-33
2022/07/10 12:03:36;;;;;;;11.75;5.38;;;;;;;31.33;69.97;100494.72;5020669;28;69912;-31
2022/07/10 12:06:08;;;;;;;9.38;4.80;;;;;;;31.33;69.80;100494.72;4955519;28;66307;-32
2022/07/10 12:08:48;;;;;;;7.50;4.53;;;;;;;31.29;69.82;100499.78;4954299;28;71167;-30
2022/07/10 12:11:20;;;;;;;6.72;4.60;;;;;;;31.32;69.94;100509.34;4958262;28;66322;-31
2022/07/10 12:13:52;;;;;;;;;;;;;;;31.03;70.33;100514.53;5009522;28;70142;-30
2022/07/10 12:16:23;;;;;;;8.57;5.33;;;;;;;31.25;69.60;100509.41;4957911;28;65898;-32
2022/07/10 12:18:56;;;;;;;6.20;4.65;;;;;;;31.30;69.14;100516.88;4985261;28;70086;-30
2022/07/10 12:21:27;;;;;;;5.03;4.57;;;;;;;31.29;69.29;100520.63;5026523;28;66397;-30